Archival Weather

Tokyo Intl

Tokyo Intl, Japan (RJTT)

Report from: Friday, June 24, 2022 3:22 PM JST
Current time: Tuesday, August 16, 2022 3:12 PM JST

Current weather
Weather history
Weather forecast

Temperature30.0°C (86.0°F)
Heat index34.2°C (93.6°F)
Dew point23.0°C (73.4°F)
Winds 22 kts (11.3 m/s, 25.3 mph) South-Southwest (200°)
Wind gusts 32 kts (16.5 m/s, 36.8 mph)
Visibility6.2 mi. (10 km)
Clouds Ceiling: Broken clouds 0 ft. (0 m)
Few clouds 3,000 ft. (914 m)
Altimeter29.59 in.Hg (1002 mB)
Relative humidity66 %
Density altitude2,475 ft. (754 m)
Remarks Special weather observation
Flight conditions Low Instrument Meteorological Conditions
Raw dataSPJP31 KWBC 240634 SPECI RJTT 240622Z 20022G32KT 9999 FEW030 BKN/// 30/23 Q1002 RMK 1CU030 A2960
An error has occurred. This application may no longer respond until reloaded. Reload 🗙